RYR6RW LBSF-LGSK
Flight info
| Callsign | RYR6RW |
|---|---|
| Flight time | 0h 47m |
| Altitude | 31000 |
| Route | OMENO3T/27 OMENO Y505 NIKTI UY505 PEREN UV652 SKP |
| Aircraft | B738/M-SDE2E3FGHIRWXY/LB1 |
Departure
| Time | 2026-04-26 17:32 |
|---|---|
| Airport | Sofia Airport (LBSF) |
Arrival
| Time | 2026-04-26 18:19 |
|---|---|
| Airport | Skiathos Island National Airport (LGSK) |
| Time | Latitude | Longitude | Altitude | Speed | Heading |
|---|---|---|---|---|---|
| 2026-04-26 17:03 | 42.69011 | 23.41002 | 1748 ft | 0 kts | 162° |
| 2026-04-26 17:18 | 42.69008 | 23.41003 | 1749 ft | 3 kts | 162° |
| 2026-04-26 17:19 | 42.68972 | 23.41143 | 1746 ft | 10 kts | 71° |
| 2026-04-26 17:19 | 42.69028 | 23.41221 | 1747 ft | 16 kts | 17° |
| 2026-04-26 17:19 | 42.69141 | 23.41182 | 1748 ft | 17 kts | 341° |
| 2026-04-26 17:20 | 42.69252 | 23.41153 | 1744 ft | 16 kts | 9° |
| 2026-04-26 17:20 | 42.69298 | 23.41224 | 1745 ft | 16 kts | 86° |
| 2026-04-26 17:20 | 42.69287 | 23.41412 | 1749 ft | 12 kts | 95° |
| 2026-04-26 17:20 | 42.69308 | 23.41505 | 1746 ft | 11 kts | 32° |
| 2026-04-26 17:21 | 42.69381 | 23.41523 | 1743 ft | 11 kts | 5° |
| 2026-04-26 17:21 | 42.69453 | 23.41544 | 1749 ft | 11 kts | 37° |
| 2026-04-26 17:21 | 42.69462 | 23.41680 | 1749 ft | 20 kts | 94° |
| 2026-04-26 17:21 | 42.69449 | 23.41888 | 1743 ft | 22 kts | 95° |
| 2026-04-26 17:22 | 42.69437 | 23.42094 | 1750 ft | 21 kts | 95° |
| 2026-04-26 17:22 | 42.69425 | 23.42292 | 1750 ft | 20 kts | 94° |
| 2026-04-26 17:22 | 42.69414 | 23.42479 | 1751 ft | 19 kts | 95° |
| 2026-04-26 17:22 | 42.69402 | 23.42679 | 1748 ft | 26 kts | 95° |
| 2026-04-26 17:23 | 42.69386 | 23.42952 | 1751 ft | 30 kts | 95° |
| 2026-04-26 17:23 | 42.69371 | 23.43199 | 1751 ft | 23 kts | 94° |
| 2026-04-26 17:23 | 42.69360 | 23.43377 | 1751 ft | 14 kts | 94° |
| 2026-04-26 17:23 | 42.69352 | 23.43502 | 1751 ft | 13 kts | 95° |
| 2026-04-26 17:24 | 42.69345 | 23.43624 | 1750 ft | 13 kts | 94° |
| 2026-04-26 17:24 | 42.69338 | 23.43742 | 1752 ft | 11 kts | 95° |
| 2026-04-26 17:24 | 42.69338 | 23.43752 | 1752 ft | 0 kts | 95° |
| 2026-04-26 17:24 | 42.69335 | 23.43805 | 1746 ft | 8 kts | 94° |
| 2026-04-26 17:25 | 42.69334 | 23.43815 | 1749 ft | 1 kts | 94° |
| 2026-04-26 17:25 | 42.69334 | 23.43822 | 1745 ft | 1 kts | 94° |
| 2026-04-26 17:25 | 42.69333 | 23.43829 | 1745 ft | 1 kts | 94° |
| 2026-04-26 17:25 | 42.69333 | 23.43831 | 1745 ft | 0 kts | 94° |
| 2026-04-26 17:26 | 42.69333 | 23.43834 | 1745 ft | 2 kts | 94° |
| 2026-04-26 17:26 | 42.69336 | 23.43903 | 1747 ft | 7 kts | 70° |
| 2026-04-26 17:26 | 42.69344 | 23.43920 | 1744 ft | 0 kts | 51° |
| 2026-04-26 17:27 | 42.69344 | 23.43921 | 1744 ft | 1 kts | 51° |
| 2026-04-26 17:28 | 42.69385 | 23.43945 | 1753 ft | 10 kts | 8° |
| 2026-04-26 17:28 | 42.69398 | 23.43947 | 1751 ft | 0 kts | 5° |
| 2026-04-26 17:30 | 42.69427 | 23.43950 | 1751 ft | 10 kts | 5° |
| 2026-04-26 17:31 | 42.69511 | 23.43918 | 1749 ft | 14 kts | 295° |
| 2026-04-26 17:31 | 42.69529 | 23.43713 | 1752 ft | 46 kts | 275° |
| 2026-04-26 17:31 | 42.69575 | 23.42943 | 1750 ft | 115 kts | 275° |
| 2026-04-26 17:31 | 42.69655 | 23.41606 | 1870 ft | 158 kts | 276° |
| 2026-04-26 17:32 | 42.69742 | 23.40114 | 2640 ft | 159 kts | 275° |
| 2026-04-26 17:32 | 42.69868 | 23.38631 | 3451 ft | 164 kts | 286° |
| 2026-04-26 17:32 | 42.70337 | 23.37146 | 3955 ft | 186 kts | 302° |
| 2026-04-26 17:32 | 42.71243 | 23.35734 | 4201 ft | 212 kts | 321° |
| 2026-04-26 17:33 | 42.72626 | 23.34740 | 4415 ft | 241 kts | 342° |
| 2026-04-26 17:33 | 42.74352 | 23.34388 | 4980 ft | 257 kts | 354° |
| 2026-04-26 17:33 | 42.76155 | 23.34216 | 5840 ft | 261 kts | 354° |
| 2026-04-26 17:34 | 42.79828 | 23.33776 | 7513 ft | 269 kts | 352° |
| 2026-04-26 17:34 | 42.81695 | 23.33506 | 8398 ft | 272 kts | 354° |
| 2026-04-26 17:34 | 42.83569 | 23.33954 | 9198 ft | 282 kts | 24° |
| 2026-04-26 17:34 | 42.85111 | 23.35631 | 10054 ft | 290 kts | 49° |
| 2026-04-26 17:35 | 42.86083 | 23.38113 | 10536 ft | 312 kts | 71° |
| 2026-04-26 17:35 | 42.86315 | 23.41166 | 10811 ft | 337 kts | 94° |
| 2026-04-26 17:35 | 42.85693 | 23.44282 | 11481 ft | 347 kts | 115° |
| 2026-04-26 17:35 | 42.84228 | 23.46901 | 12271 ft | 352 kts | 140° |
| 2026-04-26 17:36 | 42.82130 | 23.48640 | 13100 ft | 356 kts | 156° |
| 2026-04-26 17:36 | 42.79814 | 23.49877 | 13884 ft | 361 kts | 161° |
| 2026-04-26 17:36 | 42.77419 | 23.50963 | 14604 ft | 365 kts | 162° |
| 2026-04-26 17:36 | 42.75019 | 23.52026 | 15365 ft | 369 kts | 162° |
| 2026-04-26 17:37 | 42.72542 | 23.53156 | 16157 ft | 372 kts | 161° |
| 2026-04-26 17:37 | 42.70083 | 23.54319 | 16939 ft | 376 kts | 161° |
| 2026-04-26 17:37 | 42.67633 | 23.55514 | 17704 ft | 380 kts | 160° |
| 2026-04-26 17:38 | 42.62618 | 23.58026 | 19095 ft | 388 kts | 160° |
| 2026-04-26 17:38 | 42.60085 | 23.59312 | 19801 ft | 390 kts | 159° |
| 2026-04-26 17:38 | 42.57537 | 23.60609 | 20490 ft | 393 kts | 159° |
| 2026-04-26 17:38 | 42.54967 | 23.61919 | 21155 ft | 396 kts | 159° |
| 2026-04-26 17:39 | 42.52383 | 23.63236 | 21876 ft | 397 kts | 159° |
| 2026-04-26 17:39 | 42.49809 | 23.64546 | 22746 ft | 393 kts | 159° |
| 2026-04-26 17:39 | 42.48116 | 23.65407 | 23345 ft | 391 kts | 159° |
| 2026-04-26 17:39 | 42.45578 | 23.66697 | 24110 ft | 389 kts | 159° |
| 2026-04-26 17:40 | 42.43047 | 23.67982 | 24764 ft | 389 kts | 159° |
| 2026-04-26 17:40 | 42.41335 | 23.68850 | 25159 ft | 389 kts | 159° |
| 2026-04-26 17:40 | 42.37981 | 23.70550 | 25996 ft | 388 kts | 159° |
| 2026-04-26 17:40 | 42.35457 | 23.71828 | 26657 ft | 387 kts | 159° |
| 2026-04-26 17:41 | 42.32925 | 23.73109 | 27039 ft | 390 kts | 159° |
| 2026-04-26 17:41 | 42.30388 | 23.74391 | 27033 ft | 388 kts | 159° |
| 2026-04-26 17:41 | 42.27863 | 23.75667 | 27040 ft | 387 kts | 159° |
| 2026-04-26 17:41 | 42.25340 | 23.76940 | 27060 ft | 387 kts | 159° |
| 2026-04-26 17:42 | 42.22812 | 23.78214 | 27048 ft | 388 kts | 159° |
| 2026-04-26 17:42 | 42.20281 | 23.79489 | 27043 ft | 388 kts | 159° |
| 2026-04-26 17:42 | 42.17753 | 23.80761 | 27045 ft | 389 kts | 159° |
| 2026-04-26 17:42 | 42.15219 | 23.82035 | 27042 ft | 389 kts | 159° |
| 2026-04-26 17:43 | 42.12682 | 23.83310 | 27032 ft | 388 kts | 159° |
| 2026-04-26 17:43 | 42.10153 | 23.84579 | 27029 ft | 388 kts | 159° |
| 2026-04-26 17:43 | 42.07585 | 23.85767 | 27076 ft | 395 kts | 162° |
| 2026-04-26 17:43 | 42.04913 | 23.86901 | 27226 ft | 407 kts | 162° |
| 2026-04-26 17:44 | 42.02190 | 23.88094 | 27514 ft | 415 kts | 161° |
| 2026-04-26 17:44 | 41.99443 | 23.89369 | 27949 ft | 419 kts | 160° |
| 2026-04-26 17:44 | 41.96704 | 23.90704 | 28573 ft | 418 kts | 159° |
| 2026-04-26 17:44 | 41.93993 | 23.92067 | 29285 ft | 414 kts | 159° |
| 2026-04-26 17:45 | 41.91336 | 23.93424 | 29907 ft | 413 kts | 159° |
| 2026-04-26 17:45 | 41.88613 | 23.94824 | 30417 ft | 413 kts | 159° |
| 2026-04-26 17:45 | 41.85968 | 23.96185 | 30877 ft | 413 kts | 159° |
| 2026-04-26 17:45 | 41.83270 | 23.97573 | 31001 ft | 416 kts | 159° |
| 2026-04-26 17:46 | 41.77874 | 24.00339 | 31015 ft | 413 kts | 159° |
| 2026-04-26 17:46 | 41.72495 | 24.03088 | 31022 ft | 415 kts | 159° |
| 2026-04-26 17:47 | 41.68006 | 24.05378 | 31012 ft | 416 kts | 159° |
| 2026-04-26 17:47 | 41.61670 | 24.08607 | 31005 ft | 417 kts | 159° |
| 2026-04-26 17:48 | 41.56198 | 24.11172 | 30984 ft | 416 kts | 168° |
| 2026-04-26 17:48 | 41.50455 | 24.11644 | 30994 ft | 413 kts | 187° |
| 2026-04-26 17:49 | 41.44759 | 24.10668 | 30993 ft | 413 kts | 189° |
| 2026-04-26 17:49 | 41.39066 | 24.09645 | 30985 ft | 413 kts | 189° |
| 2026-04-26 17:50 | 41.33402 | 24.08677 | 30984 ft | 413 kts | 188° |
| 2026-04-26 17:50 | 41.27657 | 24.07723 | 30970 ft | 413 kts | 188° |
| 2026-04-26 17:51 | 41.21951 | 24.06782 | 30970 ft | 413 kts | 189° |
| 2026-04-26 17:51 | 41.16248 | 24.05842 | 30973 ft | 413 kts | 189° |
| 2026-04-26 17:52 | 41.10584 | 24.04909 | 30976 ft | 413 kts | 189° |
| 2026-04-26 17:52 | 41.04875 | 24.03971 | 30976 ft | 413 kts | 189° |
| 2026-04-26 17:53 | 40.99162 | 24.03036 | 30975 ft | 414 kts | 189° |
| 2026-04-26 17:54 | 40.90562 | 24.01655 | 30614 ft | 414 kts | 189° |
| 2026-04-26 17:54 | 40.87725 | 24.01201 | 30314 ft | 409 kts | 189° |
| 2026-04-26 17:54 | 40.84904 | 24.00748 | 29924 ft | 406 kts | 190° |
| 2026-04-26 17:54 | 40.82114 | 24.00301 | 29525 ft | 402 kts | 190° |
| 2026-04-26 17:55 | 40.79354 | 23.99859 | 29152 ft | 398 kts | 190° |
| 2026-04-26 17:55 | 40.76613 | 23.99420 | 28755 ft | 395 kts | 190° |
| 2026-04-26 17:55 | 40.73898 | 23.98994 | 28397 ft | 391 kts | 190° |
| 2026-04-26 17:55 | 40.71211 | 23.98579 | 28002 ft | 388 kts | 190° |
| 2026-04-26 17:56 | 40.68537 | 23.98167 | 27628 ft | 385 kts | 190° |
| 2026-04-26 17:56 | 40.63256 | 23.97351 | 26885 ft | 379 kts | 190° |
| 2026-04-26 17:57 | 40.58093 | 23.96476 | 26189 ft | 372 kts | 193° |
| 2026-04-26 17:57 | 40.55558 | 23.95870 | 25844 ft | 369 kts | 195° |
| 2026-04-26 17:57 | 40.53041 | 23.95216 | 25484 ft | 367 kts | 195° |
| 2026-04-26 17:57 | 40.50543 | 23.94555 | 25125 ft | 365 kts | 195° |
| 2026-04-26 17:58 | 40.43116 | 23.92621 | 24068 ft | 361 kts | 195° |
| 2026-04-26 17:59 | 40.38193 | 23.91366 | 23311 ft | 359 kts | 195° |
| 2026-04-26 17:59 | 40.35742 | 23.90745 | 22908 ft | 357 kts | 195° |
| 2026-04-26 17:59 | 40.33307 | 23.90131 | 22545 ft | 355 kts | 195° |
| 2026-04-26 17:59 | 40.30888 | 23.89522 | 22172 ft | 353 kts | 194° |
| 2026-04-26 18:00 | 40.28483 | 23.88917 | 21813 ft | 351 kts | 194° |
| 2026-04-26 18:00 | 40.26094 | 23.88316 | 21468 ft | 349 kts | 194° |
| 2026-04-26 18:00 | 40.23719 | 23.87720 | 21120 ft | 346 kts | 194° |
| 2026-04-26 18:00 | 40.21361 | 23.87128 | 20776 ft | 344 kts | 194° |
| 2026-04-26 18:01 | 40.19013 | 23.86538 | 20437 ft | 343 kts | 194° |
| 2026-04-26 18:01 | 40.16678 | 23.85953 | 20096 ft | 341 kts | 194° |
| 2026-04-26 18:01 | 40.14375 | 23.85375 | 19773 ft | 340 kts | 194° |
| 2026-04-26 18:01 | 40.12025 | 23.84787 | 19425 ft | 339 kts | 194° |
| 2026-04-26 18:02 | 40.09741 | 23.84215 | 19084 ft | 338 kts | 193° |
| 2026-04-26 18:02 | 40.08181 | 23.83825 | 18860 ft | 337 kts | 193° |
| 2026-04-26 18:02 | 40.05131 | 23.83063 | 18401 ft | 337 kts | 193° |
| 2026-04-26 18:02 | 40.02830 | 23.82488 | 18024 ft | 336 kts | 193° |
| 2026-04-26 18:03 | 40.00531 | 23.81914 | 17667 ft | 335 kts | 193° |
| 2026-04-26 18:03 | 39.98251 | 23.81345 | 17307 ft | 333 kts | 193° |
| 2026-04-26 18:03 | 39.95977 | 23.80779 | 16963 ft | 331 kts | 193° |
| 2026-04-26 18:03 | 39.93721 | 23.80217 | 16620 ft | 329 kts | 192° |
| 2026-04-26 18:04 | 39.91480 | 23.79660 | 16285 ft | 327 kts | 192° |
| 2026-04-26 18:04 | 39.89248 | 23.79105 | 15954 ft | 325 kts | 192° |
| 2026-04-26 18:04 | 39.87034 | 23.78554 | 15628 ft | 324 kts | 192° |
| 2026-04-26 18:05 | 39.82628 | 23.77460 | 14964 ft | 321 kts | 192° |
| 2026-04-26 18:05 | 39.80434 | 23.76916 | 14635 ft | 320 kts | 192° |
| 2026-04-26 18:05 | 39.78285 | 23.76383 | 14315 ft | 319 kts | 191° |
| 2026-04-26 18:05 | 39.76107 | 23.75844 | 13984 ft | 318 kts | 191° |
| 2026-04-26 18:06 | 39.73936 | 23.75306 | 13639 ft | 317 kts | 191° |
| 2026-04-26 18:06 | 39.71772 | 23.74771 | 13278 ft | 316 kts | 191° |
| 2026-04-26 18:06 | 39.69617 | 23.74239 | 12936 ft | 314 kts | 191° |
| 2026-04-26 18:06 | 39.67473 | 23.73709 | 12601 ft | 313 kts | 191° |
| 2026-04-26 18:07 | 39.65474 | 23.73215 | 12296 ft | 311 kts | 191° |
| 2026-04-26 18:07 | 39.63351 | 23.72692 | 11969 ft | 310 kts | 191° |
| 2026-04-26 18:07 | 39.61241 | 23.72171 | 11645 ft | 308 kts | 191° |
| 2026-04-26 18:07 | 39.59819 | 23.71821 | 11427 ft | 307 kts | 191° |
| 2026-04-26 18:08 | 39.57045 | 23.71137 | 11009 ft | 306 kts | 191° |
| 2026-04-26 18:08 | 39.54957 | 23.70623 | 10685 ft | 305 kts | 191° |
| 2026-04-26 18:08 | 39.52878 | 23.70112 | 10368 ft | 304 kts | 191° |
| 2026-04-26 18:08 | 39.50810 | 23.69604 | 10131 ft | 300 kts | 191° |
| 2026-04-26 18:09 | 39.48782 | 23.69106 | 9915 ft | 295 kts | 191° |
| 2026-04-26 18:09 | 39.46767 | 23.68611 | 9584 ft | 294 kts | 191° |
| 2026-04-26 18:09 | 39.44836 | 23.68137 | 9276 ft | 293 kts | 191° |
| 2026-04-26 18:09 | 39.42837 | 23.67646 | 8970 ft | 292 kts | 191° |
| 2026-04-26 18:10 | 39.40844 | 23.67158 | 8659 ft | 290 kts | 191° |
| 2026-04-26 18:10 | 39.38866 | 23.66673 | 8359 ft | 289 kts | 192° |
| 2026-04-26 18:10 | 39.36891 | 23.66190 | 8035 ft | 289 kts | 192° |
| 2026-04-26 18:10 | 39.34918 | 23.65707 | 7737 ft | 288 kts | 192° |
| 2026-04-26 18:11 | 39.32960 | 23.65228 | 7455 ft | 286 kts | 192° |
| 2026-04-26 18:11 | 39.31007 | 23.64750 | 7162 ft | 285 kts | 192° |
| 2026-04-26 18:11 | 39.29063 | 23.64275 | 6866 ft | 284 kts | 192° |
| 2026-04-26 18:11 | 39.27122 | 23.63801 | 6569 ft | 284 kts | 192° |
| 2026-04-26 18:12 | 39.25179 | 23.63327 | 6259 ft | 284 kts | 193° |
| 2026-04-26 18:12 | 39.23243 | 23.62854 | 5945 ft | 283 kts | 192° |
| 2026-04-26 18:12 | 39.21311 | 23.62383 | 5642 ft | 282 kts | 192° |
| 2026-04-26 18:12 | 39.19392 | 23.61916 | 5349 ft | 281 kts | 192° |
| 2026-04-26 18:13 | 39.17501 | 23.61306 | 5036 ft | 278 kts | 204° |
| 2026-04-26 18:13 | 39.15765 | 23.60243 | 4760 ft | 275 kts | 210° |
| 2026-04-26 18:13 | 39.14074 | 23.59099 | 4460 ft | 274 kts | 210° |
| 2026-04-26 18:13 | 39.12960 | 23.58336 | 4248 ft | 273 kts | 210° |
| 2026-04-26 18:14 | 39.10716 | 23.56818 | 3840 ft | 272 kts | 209° |
| 2026-04-26 18:14 | 39.09042 | 23.55708 | 3666 ft | 265 kts | 208° |
| 2026-04-26 18:14 | 39.07445 | 23.54660 | 3538 ft | 250 kts | 208° |
| 2026-04-26 18:14 | 39.05951 | 23.53685 | 3459 ft | 231 kts | 208° |
| 2026-04-26 18:15 | 39.04576 | 23.52789 | 3347 ft | 212 kts | 208° |
| 2026-04-26 18:15 | 39.03322 | 23.51972 | 3257 ft | 198 kts | 209° |
| 2026-04-26 18:15 | 39.02327 | 23.50850 | 3134 ft | 182 kts | 244° |
| 2026-04-26 18:15 | 39.02059 | 23.49327 | 3032 ft | 177 kts | 275° |
| 2026-04-26 18:16 | 39.02444 | 23.47865 | 2837 ft | 175 kts | 312° |
| 2026-04-26 18:16 | 39.04488 | 23.47964 | 2685 ft | 170 kts | 41° |
| 2026-04-26 18:16 | 39.05476 | 23.48779 | 2832 ft | 171 kts | 16° |
| 2026-04-26 18:17 | 39.06672 | 23.48863 | 2688 ft | 178 kts | 354° |
| 2026-04-26 18:17 | 39.07948 | 23.48639 | 2080 ft | 193 kts | 349° |
| 2026-04-26 18:17 | 39.09244 | 23.48297 | 1740 ft | 187 kts | 346° |
| 2026-04-26 18:17 | 39.10502 | 23.47939 | 1268 ft | 185 kts | 347° |
| 2026-04-26 18:18 | 39.11759 | 23.47675 | 873 ft | 175 kts | 356° |
| 2026-04-26 18:18 | 39.12877 | 23.47953 | 656 ft | 155 kts | 24° |
| 2026-04-26 18:18 | 39.13766 | 23.48525 | 732 ft | 139 kts | 26° |
| 2026-04-26 18:18 | 39.14671 | 23.49021 | 685 ft | 144 kts | 19° |
| 2026-04-26 18:19 | 39.15605 | 23.49445 | 443 ft | 141 kts | 18° |
| 2026-04-26 18:19 | 39.16529 | 23.49835 | 171 ft | 138 kts | 18° |
| 2026-04-26 18:19 | 39.17380 | 23.50219 | 43 ft | 122 kts | 19° |
| 2026-04-26 18:19 | 39.17871 | 23.50438 | 67 ft | 17 kts | 20° |
| 2026-04-26 18:20 | 39.17895 | 23.50448 | 67 ft | 6 kts | 18° |
| 2026-04-26 18:20 | 39.17948 | 23.50434 | 65 ft | 6 kts | 292° |
| 2026-04-26 18:20 | 39.17944 | 23.50368 | 67 ft | 13 kts | 257° |